createdAt,value
2023-02-08T00:00:38.488Z,95.76
2023-02-08T00:01:37.989Z,96.36
2023-02-08T00:02:38.016Z,96.10
2023-02-08T00:03:38.044Z,95.10
2023-02-08T00:04:38.024Z,94.46
2023-02-08T00:05:37.964Z,94.04
2023-02-08T00:06:38.004Z,93.62
2023-02-08T00:07:37.985Z,93.51
2023-02-08T00:08:37.948Z,93.30
2023-02-08T00:09:37.897Z,93.19
2023-02-08T00:10:38.175Z,92.98
2023-02-08T00:11:37.883Z,92.87
2023-02-08T00:12:37.889Z,92.87
2023-02-08T00:13:39.299Z,92.91
2023-02-08T00:14:37.858Z,92.81
2023-02-08T00:15:37.921Z,93.13
2023-02-08T00:16:37.908Z,93.02
2023-02-08T00:17:37.856Z,93.34
2023-02-08T00:18:37.830Z,93.34
2023-02-08T00:19:37.826Z,93.27
2023-02-08T00:20:38.099Z,93.17
2023-02-08T00:21:37.835Z,93.80
2023-02-08T00:22:37.796Z,93.55
2023-02-08T00:23:37.811Z,93.49
2023-02-08T00:24:37.772Z,93.87
2023-02-08T00:25:37.767Z,93.76
2023-02-08T00:26:37.779Z,93.34
2023-02-08T00:27:37.791Z,93.23
2023-02-08T00:28:37.816Z,93.13
2023-02-08T00:29:37.745Z,93.17
2023-02-08T00:30:37.809Z,93.06
2023-02-08T00:31:37.895Z,93.06
2023-02-08T00:32:37.675Z,92.57
2023-02-08T00:33:37.791Z,92.47
2023-02-08T00:34:37.677Z,92.61
2023-02-08T00:35:37.668Z,92.51
2023-02-08T00:36:37.705Z,93.25
2023-02-08T00:37:37.706Z,94.06
2023-02-08T00:38:37.648Z,94.27
2023-02-08T00:39:37.681Z,94.27
2023-02-08T00:40:37.604Z,94.02
2023-02-08T00:41:37.609Z,93.80
2023-02-08T00:42:37.612Z,93.74
2023-02-08T00:43:37.577Z,93.63
2023-02-08T00:44:37.572Z,93.10
2023-02-08T00:45:37.557Z,93.25
2023-02-08T00:46:37.604Z,93.25
2023-02-08T00:47:37.542Z,93.79
2023-02-08T00:48:37.548Z,93.99
2023-02-08T00:49:37.518Z,94.10
2023-02-08T00:50:37.900Z,94.10
2023-02-08T00:51:37.564Z,94.10
2023-02-08T00:52:37.498Z,93.79
2023-02-08T00:53:37.499Z,93.79
2023-02-08T00:54:37.463Z,94.04
2023-02-08T00:55:37.542Z,94.15
2023-02-08T00:56:37.496Z,94.36
2023-02-08T00:57:37.456Z,94.46
2023-02-08T00:58:37.432Z,94.46
2023-02-08T00:59:37.462Z,94.46
2023-02-08T01:00:37.725Z,94.51
2023-02-08T01:01:37.467Z,94.72
2023-02-08T01:02:37.420Z,94.93
2023-02-08T01:03:37.380Z,95.53
2023-02-08T01:04:37.371Z,96.23
2023-02-08T01:05:37.365Z,96.01
2023-02-08T01:06:37.347Z,95.70
2023-02-08T01:07:37.708Z,95.64
2023-02-08T01:08:37.335Z,95.74
2023-02-08T01:09:37.328Z,96.34
2023-02-08T01:10:37.361Z,95.81
2023-02-08T01:11:37.345Z,95.81
2023-02-08T01:12:37.301Z,95.74
2023-02-08T01:13:37.406Z,95.85
2023-02-08T01:14:37.277Z,96.23
2023-02-08T01:15:37.305Z,96.12
2023-02-08T01:16:37.357Z,95.59
2023-02-08T01:17:37.258Z,95.48
2023-02-08T01:18:37.241Z,95.23
2023-02-08T01:19:37.263Z,94.91
2023-02-08T01:20:37.435Z,94.64
2023-02-08T01:21:37.239Z,94.42
2023-02-08T01:22:37.245Z,94.32
2023-02-08T01:23:37.197Z,94.32
2023-02-08T01:24:37.176Z,94.46
2023-02-08T01:25:37.172Z,94.64
2023-02-08T01:26:37.157Z,94.64
2023-02-08T01:27:37.182Z,94.36
2023-02-08T01:28:37.240Z,94.57
2023-02-08T01:29:37.151Z,94.78
2023-02-08T01:30:37.174Z,94.57
2023-02-08T01:31:37.234Z,94.68
2023-02-08T01:32:37.183Z,94.89
2023-02-08T01:33:37.108Z,94.68
2023-02-08T01:34:37.088Z,94.68
2023-02-08T01:35:37.192Z,95.00
2023-02-08T01:36:37.094Z,95.21
2023-02-08T01:37:37.104Z,95.32
2023-02-08T01:38:37.048Z,94.89
2023-02-08T01:39:37.064Z,94.85
2023-02-08T01:40:37.083Z,94.85
2023-02-08T01:41:37.084Z,94.64
2023-02-08T01:42:37.006Z,94.27
2023-02-08T01:43:37.017Z,93.85
2023-02-08T01:44:37.011Z,93.63
2023-02-08T01:45:37.023Z,93.53
2023-02-08T01:46:41.661Z,93.36
2023-02-08T01:47:37.061Z,93.46
2023-02-08T01:48:36.982Z,93.46
2023-02-08T01:49:36.964Z,93.36
2023-02-08T01:50:36.993Z,93.36
2023-02-08T01:51:37.099Z,93.36
2023-02-08T01:52:36.943Z,93.25
2023-02-08T01:53:36.917Z,93.15
2023-02-08T01:54:36.920Z,93.04
2023-02-08T01:55:36.920Z,92.97
2023-02-08T01:56:36.867Z,92.97
2023-02-08T01:57:36.863Z,93.19
2023-02-08T01:58:36.853Z,93.23
2023-02-08T01:59:36.915Z,93.44
2023-02-08T02:00:36.837Z,93.76
2023-02-08T02:01:36.835Z,93.87
2023-02-08T02:02:36.836Z,93.87
2023-02-08T02:03:36.908Z,94.51
2023-02-08T02:04:36.818Z,94.72
2023-02-08T02:05:36.795Z,94.51
2023-02-08T02:06:36.841Z,94.72
2023-02-08T02:07:36.807Z,94.68
2023-02-08T02:08:36.851Z,94.46
2023-02-08T02:09:36.806Z,94.36
2023-02-08T02:10:36.768Z,94.04
2023-02-08T02:11:36.760Z,93.72
2023-02-08T02:12:36.718Z,93.72
2023-02-08T02:13:36.721Z,93.62
2023-02-08T02:14:36.736Z,93.40
2023-02-08T02:15:36.730Z,93.33
2023-02-08T02:16:36.793Z,93.23
2023-02-08T02:17:36.717Z,93.33
2023-02-08T02:18:36.666Z,93.48
2023-02-08T02:19:36.676Z,93.70
2023-02-08T02:20:38.085Z,93.80
2023-02-08T02:21:36.648Z,93.80
2023-02-08T02:22:36.657Z,93.80
2023-02-08T02:23:36.692Z,94.34
2023-02-08T02:24:36.637Z,94.65
2023-02-08T02:25:36.603Z,94.55
2023-02-08T02:26:36.649Z,94.38
2023-02-08T02:27:36.683Z,94.70
2023-02-08T02:28:36.570Z,94.91
2023-02-08T02:29:36.703Z,94.70
2023-02-08T02:30:36.586Z,94.91
2023-02-08T02:31:36.634Z,95.02
2023-02-08T02:32:36.533Z,95.02
2023-02-08T02:33:36.568Z,94.74
2023-02-08T02:34:36.519Z,95.06
2023-02-08T02:35:36.518Z,95.55
2023-02-08T02:36:36.518Z,95.45
2023-02-08T02:37:36.489Z,95.12
2023-02-08T02:38:36.482Z,95.06
2023-02-08T02:39:36.499Z,95.06
2023-02-08T02:40:36.518Z,95.17
2023-02-08T02:41:36.470Z,95.10
2023-02-08T02:42:36.465Z,95.21
2023-02-08T02:43:36.446Z,95.74
2023-02-08T02:44:36.430Z,96.12
2023-02-08T02:45:36.479Z,96.55
2023-02-08T02:46:41.230Z,96.34
2023-02-08T02:47:36.437Z,96.34
2023-02-08T02:48:36.381Z,96.23
2023-02-08T02:49:36.384Z,96.12
2023-02-08T02:50:36.383Z,96.34
2023-02-08T02:51:36.364Z,96.55
2023-02-08T02:52:36.349Z,96.87
2023-02-08T02:53:36.356Z,96.66
2023-02-08T02:54:36.323Z,96.45
2023-02-08T02:55:36.368Z,96.45
2023-02-08T02:56:36.314Z,96.55
2023-02-08T02:57:36.311Z,96.77
2023-02-08T02:58:36.291Z,96.87
2023-02-08T02:59:36.291Z,96.87
2023-02-08T03:00:36.299Z,96.70
2023-02-08T03:01:36.712Z,97.19
2023-02-08T03:02:36.286Z,97.51
2023-02-08T03:03:36.271Z,97.41
2023-02-08T03:04:36.289Z,97.30
2023-02-08T03:05:36.232Z,97.41
2023-02-08T03:06:36.267Z,97.83
2023-02-08T03:07:36.323Z,97.94
2023-02-08T03:08:36.208Z,98.11
2023-02-08T03:09:36.197Z,98.11
2023-02-08T03:10:36.203Z,97.89
2023-02-08T03:11:36.175Z,97.58
2023-02-08T03:12:36.188Z,97.78
2023-02-08T03:13:36.190Z,97.53
2023-02-08T03:14:36.156Z,97.21
2023-02-08T03:15:36.139Z,97.11
2023-02-08T03:16:36.265Z,96.89
2023-02-08T03:17:36.155Z,96.94
2023-02-08T03:18:36.160Z,96.94
2023-02-08T03:19:36.108Z,96.83
2023-02-08T03:20:36.084Z,96.61
2023-02-08T03:21:36.078Z,96.61
2023-02-08T03:22:36.232Z,96.61
2023-02-08T03:23:36.101Z,96.55
2023-02-08T03:24:36.057Z,96.45
2023-02-08T03:25:36.039Z,96.45
2023-02-08T03:26:36.026Z,96.55
2023-02-08T03:27:36.056Z,96.45
2023-02-08T03:28:36.039Z,96.59
2023-02-08T03:29:36.005Z,96.59
2023-02-08T03:30:36.103Z,96.70
2023-02-08T03:31:36.077Z,96.98
2023-02-08T03:32:36.002Z,96.70
2023-02-08T03:33:35.969Z,96.81
2023-02-08T03:34:35.988Z,96.92
2023-02-08T03:35:35.989Z,96.81
2023-02-08T03:36:36.024Z,97.08
2023-02-08T03:37:35.960Z,96.98
2023-02-08T03:38:35.934Z,96.77
2023-02-08T03:39:35.910Z,96.70
2023-02-08T03:40:35.910Z,96.81
2023-02-08T03:41:35.947Z,97.02
2023-02-08T03:42:35.903Z,97.08
2023-02-08T03:43:35.892Z,96.98
2023-02-08T03:44:35.860Z,96.77
2023-02-08T03:45:35.868Z,96.70
2023-02-08T03:46:35.904Z,96.49
2023-02-08T03:47:35.865Z,96.59
2023-02-08T03:48:35.830Z,96.59
2023-02-08T03:49:35.824Z,96.42
2023-02-08T03:50:35.864Z,96.64
2023-02-08T03:51:35.795Z,96.85
2023-02-08T03:52:35.809Z,96.64
2023-02-08T03:53:35.798Z,96.75
2023-02-08T03:54:35.770Z,96.96
2023-02-08T03:55:35.827Z,97.28
2023-02-08T03:56:35.759Z,97.17
2023-02-08T03:57:35.801Z,97.66
2023-02-08T03:58:35.722Z,97.55
2023-02-08T03:59:35.764Z,97.45
2023-02-08T04:00:35.721Z,97.62
2023-02-08T04:01:35.785Z,97.62
2023-02-08T04:02:35.731Z,97.30
2023-02-08T04:03:35.706Z,97.08
2023-02-08T04:04:35.690Z,97.08
2023-02-08T04:05:35.671Z,97.19
2023-02-08T04:06:35.693Z,97.08
2023-02-08T04:07:35.648Z,96.98
2023-02-08T04:08:35.634Z,96.87
2023-02-08T04:09:37.847Z,96.83
2023-02-08T04:10:35.614Z,96.72
2023-02-08T04:11:35.604Z,96.41
2023-02-08T04:12:35.589Z,96.19
2023-02-08T04:13:35.593Z,96.23
2023-02-08T04:14:35.634Z,96.12
2023-02-08T04:15:35.686Z,96.12
2023-02-08T04:16:40.248Z,96.12
2023-02-08T04:17:35.546Z,96.23
2023-02-08T04:18:35.537Z,96.12
2023-02-08T04:19:35.561Z,96.02
2023-02-08T04:20:43.256Z,95.91
2023-02-08T04:21:35.506Z,95.91
2023-02-08T04:22:35.512Z,95.95
2023-02-08T04:23:35.488Z,95.95
2023-02-08T04:24:35.482Z,96.06
2023-02-08T04:25:35.506Z,95.95
2023-02-08T04:26:35.508Z,95.85
2023-02-08T04:27:35.485Z,95.74
2023-02-08T04:28:35.488Z,95.57
2023-02-08T04:29:35.442Z,95.89
2023-02-08T04:30:35.492Z,96.42
2023-02-08T04:31:35.669Z,96.21
2023-02-08T04:32:35.452Z,96.00
2023-02-08T04:33:35.396Z,95.89
2023-02-08T04:34:35.380Z,95.72
2023-02-08T04:35:35.401Z,95.83
2023-02-08T04:36:35.385Z,95.83
2023-02-08T04:37:35.379Z,96.15
2023-02-08T04:38:35.384Z,96.68
2023-02-08T04:39:35.416Z,97.06
2023-02-08T04:40:35.329Z,96.64
2023-02-08T04:41:35.318Z,96.47
2023-02-08T04:42:35.316Z,96.36
2023-02-08T04:43:35.297Z,96.36
2023-02-08T04:44:35.293Z,96.36
2023-02-08T04:45:35.320Z,97.22
2023-02-08T04:46:40.289Z,97.39
2023-02-08T04:47:35.275Z,97.06
2023-02-08T04:48:35.468Z,97.06
2023-02-08T04:49:35.269Z,97.17
2023-02-08T04:50:35.321Z,97.17
2023-02-08T04:51:35.240Z,97.17
2023-02-08T04:52:35.244Z,97.17
2023-02-08T04:53:35.218Z,97.06
2023-02-08T04:54:35.237Z,96.85
2023-02-08T04:55:35.192Z,96.85
2023-02-08T04:56:35.225Z,96.85
2023-02-08T04:57:35.195Z,96.85
2023-02-08T04:58:35.209Z,97.39
2023-02-08T04:59:35.189Z,97.55
2023-02-08T05:00:35.151Z,97.34
2023-02-08T05:01:35.209Z,97.13
2023-02-08T05:02:35.226Z,97.13
2023-02-08T05:03:35.121Z,97.13
2023-02-08T05:04:35.149Z,97.45
2023-02-08T05:05:35.099Z,97.13
2023-02-08T05:06:35.094Z,96.92
2023-02-08T05:07:35.130Z,96.81
2023-02-08T05:08:35.085Z,96.70
2023-02-08T05:09:35.070Z,96.75
2023-02-08T05:10:35.082Z,96.64
2023-02-08T05:11:35.684Z,96.64
2023-02-08T05:12:35.052Z,96.42
2023-02-08T05:13:35.103Z,96.58
2023-02-08T05:14:35.063Z,96.85
2023-02-08T05:15:35.003Z,97.06
2023-02-08T05:16:35.012Z,96.96
2023-02-08T05:17:34.993Z,97.39
2023-02-08T05:18:34.976Z,97.66
2023-02-08T05:19:34.998Z,97.24
2023-02-08T05:20:34.965Z,97.24
2023-02-08T05:21:34.967Z,97.13
2023-02-08T05:22:34.943Z,97.02
2023-02-08T05:23:34.953Z,96.92
2023-02-08T05:24:34.921Z,97.13
2023-02-08T05:25:34.938Z,97.02
2023-02-08T05:26:34.926Z,96.92
2023-02-08T05:27:34.917Z,96.81
2023-02-08T05:28:34.899Z,96.81
2023-02-08T05:29:34.891Z,96.64
2023-02-08T05:30:34.875Z,96.70
2023-02-08T05:31:35.013Z,96.70
2023-02-08T05:32:34.941Z,96.70
2023-02-08T05:33:34.884Z,96.81
2023-02-08T05:34:34.844Z,96.92
2023-02-08T05:35:34.808Z,96.81
2023-02-08T05:36:34.824Z,96.92
2023-02-08T05:37:34.788Z,96.92
2023-02-08T05:38:34.789Z,96.81
2023-02-08T05:39:34.807Z,96.70
2023-02-08T05:40:34.763Z,96.59
2023-02-08T05:41:34.759Z,96.49
2023-02-08T05:42:34.764Z,96.59
2023-02-08T05:43:34.822Z,96.49
2023-02-08T05:44:34.731Z,96.70
2023-02-08T05:45:34.731Z,96.59
2023-02-08T05:46:37.777Z,96.49
2023-02-08T05:47:34.705Z,96.38
2023-02-08T05:48:34.697Z,96.49
2023-02-08T05:49:34.685Z,96.49
2023-02-08T05:50:34.724Z,96.81
2023-02-08T05:51:34.663Z,96.49
2023-02-08T05:52:34.649Z,96.38
2023-02-08T05:53:34.641Z,96.38
2023-02-08T05:54:34.630Z,96.38
2023-02-08T05:55:34.634Z,96.17
2023-02-08T05:56:34.604Z,96.21
2023-02-08T05:57:35.854Z,96.21
2023-02-08T05:58:34.611Z,96.32
2023-02-08T05:59:34.613Z,96.32
2023-02-08T06:00:34.575Z,96.11
2023-02-08T06:01:34.564Z,96.21
2023-02-08T06:02:34.590Z,96.21
2023-02-08T06:03:34.603Z,96.53
2023-02-08T06:04:34.539Z,96.64
2023-02-08T06:05:34.556Z,96.53
2023-02-08T06:06:34.523Z,96.92
2023-02-08T06:07:34.499Z,96.81
2023-02-08T06:08:34.542Z,96.70
2023-02-08T06:09:34.486Z,96.59
2023-02-08T06:10:34.485Z,96.81
2023-02-08T06:11:34.465Z,96.81
2023-02-08T06:12:34.476Z,96.55
2023-02-08T06:13:34.441Z,96.55
2023-02-08T06:14:34.506Z,96.45
2023-02-08T06:15:34.440Z,96.45
2023-02-08T06:16:39.278Z,96.34
2023-02-08T06:17:34.408Z,96.23
2023-02-08T06:18:34.400Z,96.12
2023-02-08T06:19:34.387Z,96.12
2023-02-08T06:20:34.410Z,96.17
2023-02-08T06:21:34.385Z,96.17
2023-02-08T06:22:34.388Z,96.45
2023-02-08T06:23:34.361Z,96.45
2023-02-08T06:24:34.362Z,96.23
2023-02-08T06:25:34.356Z,96.02
2023-02-08T06:26:34.343Z,95.91
2023-02-08T06:27:34.326Z,95.81
2023-02-08T06:28:34.335Z,96.23
2023-02-08T06:29:34.312Z,96.34
2023-02-08T06:30:34.334Z,96.08
2023-02-08T06:31:34.388Z,96.08
2023-02-08T06:32:34.375Z,95.76
2023-02-08T06:33:34.259Z,95.65
2023-02-08T06:34:34.271Z,95.76
2023-02-08T06:35:34.263Z,95.76
2023-02-08T06:36:34.283Z,95.55
2023-02-08T06:37:34.327Z,95.55
2023-02-08T06:38:34.220Z,95.55
2023-02-08T06:39:34.228Z,95.45
2023-02-08T06:40:34.271Z,95.49
2023-02-08T06:41:34.212Z,95.55
2023-02-08T06:42:34.179Z,95.65
2023-02-08T06:43:34.181Z,95.65
2023-02-08T06:44:34.229Z,95.87
2023-02-08T06:45:34.226Z,95.76
2023-02-08T06:46:34.200Z,95.65
2023-02-08T06:47:34.133Z,95.76
2023-02-08T06:48:34.139Z,95.98
2023-02-08T06:49:34.122Z,95.98
2023-02-08T06:50:34.097Z,96.15
2023-02-08T06:51:34.084Z,96.15
2023-02-08T06:52:34.107Z,96.04
2023-02-08T06:53:34.072Z,95.83
2023-02-08T06:54:34.142Z,95.61
2023-02-08T06:55:34.080Z,95.61
2023-02-08T06:56:34.047Z,95.68
2023-02-08T06:57:34.041Z,95.57
2023-02-08T06:58:34.023Z,95.25
2023-02-08T06:59:34.056Z,95.25
2023-02-08T07:00:34.013Z,95.15
2023-02-08T07:01:33.996Z,95.15
2023-02-08T07:02:34.121Z,95.25
2023-02-08T07:03:33.982Z,95.10
2023-02-08T07:04:33.975Z,94.89
2023-02-08T07:05:33.992Z,94.78
2023-02-08T07:06:33.961Z,94.64
2023-02-08T07:07:33.938Z,94.53
2023-02-08T07:08:33.951Z,94.21
2023-02-08T07:09:33.929Z,93.89
2023-02-08T07:10:33.911Z,93.79
2023-02-08T07:11:33.925Z,93.46
2023-02-08T07:12:34.005Z,93.36
2023-02-08T07:13:33.887Z,93.36
2023-02-08T07:14:33.880Z,93.10
2023-02-08T07:15:33.858Z,93.00
2023-02-08T07:16:38.769Z,92.89
2023-02-08T07:17:33.859Z,92.68
2023-02-08T07:18:33.865Z,92.36
2023-02-08T07:19:33.874Z,92.25
2023-02-08T07:20:34.778Z,92.04
2023-02-08T07:21:33.967Z,91.83
2023-02-08T07:22:33.875Z,91.58
2023-02-08T07:23:33.851Z,91.58
2023-02-08T07:24:33.785Z,91.36
2023-02-08T07:25:33.764Z,91.25
2023-02-08T07:26:33.760Z,90.94
2023-02-08T07:27:33.755Z,90.83
2023-02-08T07:28:33.767Z,90.83
2023-02-08T07:29:33.779Z,90.72
2023-02-08T07:30:33.755Z,90.41
2023-02-08T07:31:33.731Z,90.09
2023-02-08T07:32:34.846Z,89.87
2023-02-08T07:33:33.810Z,89.66
2023-02-08T07:34:33.702Z,89.87
2023-02-08T07:35:33.669Z,89.94
2023-02-08T07:36:33.660Z,89.73
2023-02-08T07:37:33.677Z,89.73
2023-02-08T07:38:33.670Z,89.26
2023-02-08T07:39:33.708Z,88.95
2023-02-08T07:40:33.622Z,88.90
2023-02-08T07:41:33.617Z,88.55
2023-02-08T07:42:33.602Z,88.51
2023-02-08T07:43:33.607Z,86.99
2023-02-08T07:44:33.584Z,85.82
2023-02-08T07:45:33.617Z,85.18
2023-02-08T07:46:33.572Z,84.86
2023-02-08T07:47:33.560Z,85.08
2023-02-08T07:48:33.555Z,84.80
2023-02-08T07:49:33.608Z,85.01
2023-02-08T07:50:33.547Z,84.80
2023-02-08T07:51:33.536Z,85.01
2023-02-08T07:52:33.514Z,85.22
2023-02-08T07:53:33.505Z,85.39
2023-02-08T07:54:33.528Z,84.86
2023-02-08T07:55:33.482Z,84.83
2023-02-08T07:56:33.633Z,84.89
2023-02-08T07:57:33.478Z,83.77
2023-02-08T07:58:33.558Z,83.84
2023-02-08T07:59:33.473Z,83.24
2023-02-08T08:00:33.432Z,83.52
2023-02-08T08:01:33.501Z,83.20
2023-02-08T08:02:33.411Z,83.09
2023-02-08T08:03:33.410Z,82.92
2023-02-08T08:04:33.429Z,83.52
2023-02-08T08:05:33.381Z,83.56
2023-02-08T08:06:33.441Z,83.56
2023-02-08T08:07:33.363Z,83.73
2023-02-08T08:08:33.353Z,83.80
2023-02-08T08:09:33.340Z,83.27
2023-02-08T08:10:33.338Z,82.92
2023-02-08T08:11:33.320Z,82.39
2023-02-08T08:12:33.348Z,82.07
2023-02-08T08:13:33.330Z,82.07
2023-02-08T08:14:33.319Z,82.07
2023-02-08T08:15:33.417Z,81.71
2023-02-08T08:16:37.291Z,81.78
2023-02-08T08:17:33.271Z,81.63
2023-02-08T08:18:33.253Z,79.24
2023-02-08T08:19:33.244Z,76.37
2023-02-08T08:20:33.256Z,74.27
2023-02-08T08:21:33.217Z,70.84
2023-02-08T08:22:33.248Z,69.23
2023-02-08T08:23:33.309Z,68.62
2023-02-08T08:24:33.203Z,65.76
2023-02-08T08:25:33.185Z,64.18
2023-02-08T08:26:33.183Z,64.54
2023-02-08T08:27:33.196Z,61.36
2023-02-08T08:28:33.260Z,62.99
2023-02-08T08:29:33.141Z,62.96
2023-02-08T08:30:33.202Z,63.01
2023-02-08T08:31:33.179Z,62.88
2023-02-08T08:32:33.268Z,63.46
2023-02-08T08:33:33.113Z,63.33
2023-02-08T08:34:33.106Z,64.87
2023-02-08T08:35:33.073Z,62.07
2023-02-08T08:36:33.149Z,61.39
2023-02-08T08:37:33.051Z,62.85
2023-02-08T08:38:33.102Z,61.80
2023-02-08T08:39:33.081Z,59.74
2023-02-08T08:40:33.057Z,59.89
2023-02-08T08:41:33.051Z,57.95
2023-02-08T08:42:33.001Z,61.39
2023-02-08T08:43:33.003Z,61.25
2023-02-08T08:44:33.034Z,59.94
2023-02-08T08:45:33.007Z,60.65
2023-02-08T08:46:37.749Z,60.44
2023-02-08T08:47:32.952Z,61.44
2023-02-08T08:48:33.061Z,60.47
2023-02-08T08:49:32.944Z,58.71
2023-02-08T08:50:32.970Z,58.22
2023-02-08T08:51:32.914Z,58.45
2023-02-08T08:52:32.957Z,59.13
2023-02-08T08:53:32.878Z,57.40
2023-02-08T08:54:32.894Z,56.62
2023-02-08T08:55:32.879Z,54.85
2023-02-08T08:56:32.853Z,54.77
2023-02-08T08:57:33.256Z,55.29
2023-02-08T08:58:32.840Z,54.59
2023-02-08T08:59:32.979Z,52.36
2023-02-08T09:00:32.836Z,51.48
2023-02-08T09:01:34.434Z,51.19
2023-02-08T09:02:32.787Z,51.58
2023-02-08T09:03:32.849Z,50.21
2023-02-08T09:04:32.900Z,50.12
2023-02-08T09:05:32.774Z,50.67
2023-02-08T09:06:32.742Z,50.59
2023-02-08T09:07:32.733Z,51.34
2023-02-08T09:08:33.215Z,53.10
2023-02-08T09:09:32.749Z,55.00
2023-02-08T09:10:32.725Z,54.22
2023-02-08T09:11:32.690Z,53.21
2023-02-08T09:12:32.755Z,51.84
2023-02-08T09:13:32.684Z,49.41
2023-02-08T09:14:32.648Z,48.50
2023-02-08T09:15:32.701Z,47.91
2023-02-08T09:16:37.232Z,47.38
2023-02-08T09:17:32.620Z,49.71
2023-02-08T09:18:32.631Z,50.43
2023-02-08T09:19:32.629Z,49.72
2023-02-08T09:20:32.589Z,47.78
2023-02-08T09:21:40.557Z,46.94
2023-02-08T09:22:32.564Z,47.52
2023-02-08T09:23:32.555Z,47.44
2023-02-08T09:24:32.581Z,47.60
2023-02-08T09:25:32.558Z,45.59
2023-02-08T09:26:32.614Z,45.98
2023-02-08T09:27:32.515Z,44.80
2023-02-08T09:28:32.498Z,44.47
2023-02-08T09:29:32.484Z,46.23
2023-02-08T09:30:32.512Z,46.36
2023-02-08T09:31:32.671Z,46.34
2023-02-08T09:32:32.478Z,46.46
2023-02-08T09:33:32.450Z,47.29
2023-02-08T09:34:32.442Z,47.00
2023-02-08T09:35:32.481Z,48.47
2023-02-08T09:36:32.410Z,49.51
2023-02-08T09:37:32.441Z,47.56
2023-02-08T09:38:34.554Z,45.63
2023-02-08T09:39:32.382Z,48.96
2023-02-08T09:40:32.428Z,50.98
2023-02-08T09:41:32.451Z,50.18
2023-02-08T09:42:32.433Z,49.40
2023-02-08T09:43:32.345Z,49.87
2023-02-08T09:44:32.359Z,49.79
2023-02-08T09:45:32.325Z,50.91
2023-02-08T09:46:37.365Z,48.97
2023-02-08T09:47:32.329Z,46.75
2023-02-08T09:48:32.288Z,45.88
2023-02-08T09:49:32.292Z,45.51
2023-02-08T09:50:32.282Z,46.37
2023-02-08T09:51:32.296Z,44.74
2023-02-08T09:52:32.248Z,45.07
2023-02-08T09:53:32.262Z,46.40
2023-02-08T09:54:32.269Z,45.13
2023-02-08T09:55:32.216Z,44.31
2023-02-08T09:56:32.209Z,44.20
2023-02-08T09:57:32.188Z,44.66
2023-02-08T09:58:32.202Z,42.76
2023-02-08T09:59:32.283Z,42.69
2023-02-08T10:00:32.273Z,42.36
2023-02-08T10:01:32.150Z,41.10
2023-02-08T10:02:32.156Z,41.10
2023-02-08T10:03:32.137Z,42.96
2023-02-08T10:04:32.128Z,44.18
2023-02-08T10:05:32.144Z,44.35
2023-02-08T10:06:32.092Z,43.73
2023-02-08T10:07:32.106Z,45.21
2023-02-08T10:08:35.518Z,44.70
2023-02-08T10:09:32.074Z,43.85
2023-02-08T10:10:32.298Z,44.28
2023-02-08T10:11:32.088Z,44.06
2023-02-08T10:12:32.061Z,42.88
2023-02-08T10:13:41.117Z,42.86
2023-02-08T10:14:33.102Z,43.52
2023-02-08T10:15:32.010Z,45.20
2023-02-08T10:16:32.072Z,44.62
2023-02-08T10:17:32.005Z,44.78
2023-02-08T10:18:32.123Z,45.30
2023-02-08T10:19:31.960Z,46.07
2023-02-08T10:20:31.970Z,47.42
2023-02-08T10:21:32.108Z,46.27
2023-02-08T10:22:31.921Z,45.21
2023-02-08T10:23:31.920Z,44.08
2023-02-08T10:24:31.926Z,43.46
2023-02-08T10:25:31.905Z,42.49
2023-02-08T10:26:31.892Z,44.31
2023-02-08T10:27:31.917Z,44.47
2023-02-08T10:28:31.925Z,42.03
2023-02-08T10:29:31.886Z,43.54
2023-02-08T10:30:31.916Z,42.80
2023-02-08T10:31:31.933Z,41.99
2023-02-08T10:32:31.837Z,42.82
2023-02-08T10:33:32.307Z,42.26
2023-02-08T10:34:31.784Z,44.04
2023-02-08T10:35:31.804Z,46.38
2023-02-08T10:36:31.775Z,47.00
2023-02-08T10:37:31.901Z,47.47
2023-02-08T10:38:45.519Z,45.53
2023-02-08T10:39:35.318Z,43.50
2023-02-08T10:40:31.730Z,42.76
2023-02-08T10:41:31.724Z,42.38
2023-02-08T10:42:31.700Z,44.90
2023-02-08T10:43:31.760Z,45.90
2023-02-08T10:44:31.696Z,44.84
2023-02-08T10:45:31.735Z,44.51
2023-02-08T10:46:31.682Z,43.01
2023-02-08T10:47:31.668Z,42.61
2023-02-08T10:48:31.680Z,41.91
2023-02-08T10:49:31.631Z,43.68
2023-02-08T10:50:31.638Z,43.58
2023-02-08T10:51:31.642Z,43.13
2023-02-08T10:52:31.592Z,43.89
2023-02-08T10:53:31.595Z,42.55
2023-02-08T10:54:31.589Z,41.71
2023-02-08T10:55:31.587Z,41.52
2023-02-08T10:56:31.591Z,40.86
2023-02-08T10:57:31.585Z,40.20
2023-02-08T10:58:31.524Z,38.62
2023-02-08T10:59:31.543Z,39.82
2023-02-08T11:00:31.514Z,37.66
2023-02-08T11:01:31.520Z,37.83
2023-02-08T11:02:31.534Z,36.87
2023-02-08T11:03:31.516Z,38.37
2023-02-08T11:04:31.589Z,39.17
2023-02-08T11:05:31.456Z,40.01
2023-02-08T11:06:31.489Z,40.16
2023-02-08T11:07:31.452Z,41.08
2023-02-08T11:08:31.420Z,40.00
2023-02-08T11:09:31.480Z,38.57
2023-02-08T11:10:31.393Z,39.84
2023-02-08T11:11:31.445Z,41.38
2023-02-08T11:12:31.374Z,40.81
2023-02-08T11:13:31.385Z,40.33
2023-02-08T11:14:45.459Z,39.89
2023-02-08T11:15:32.828Z,40.59
2023-02-08T11:16:31.344Z,40.73
2023-02-08T11:17:31.330Z,41.20
2023-02-08T11:18:31.340Z,39.56
2023-02-08T11:19:31.342Z,39.21
2023-02-08T11:20:31.286Z,41.14
2023-02-08T11:21:31.284Z,42.98
2023-02-08T11:22:31.315Z,44.24
2023-02-08T11:23:31.282Z,44.55
2023-02-08T11:24:31.272Z,43.35
2023-02-08T11:25:31.234Z,41.97
2023-02-08T11:26:31.240Z,41.70
2023-02-08T11:27:31.291Z,42.03
2023-02-08T11:28:31.271Z,41.74
2023-02-08T11:29:31.222Z,42.71
2023-02-08T11:30:31.219Z,42.75
2023-02-08T11:31:31.216Z,40.30
2023-02-08T11:32:31.158Z,41.29
2023-02-08T11:33:31.192Z,39.59
2023-02-08T11:34:31.253Z,36.89
2023-02-08T11:35:31.172Z,37.61
2023-02-08T11:36:32.627Z,36.39
2023-02-08T11:37:31.131Z,39.26
2023-02-08T11:38:31.158Z,37.78
2023-02-08T11:39:31.115Z,38.40
2023-02-08T11:40:31.140Z,37.42
2023-02-08T11:41:31.096Z,36.27
2023-02-08T11:42:31.064Z,35.97
2023-02-08T11:43:31.248Z,37.02
2023-02-08T11:44:31.140Z,36.68
2023-02-08T11:45:31.184Z,36.06
2023-02-08T11:46:31.039Z,35.93
2023-02-08T11:47:31.015Z,34.57
2023-02-08T11:48:30.987Z,34.88
2023-02-08T11:49:31.028Z,35.78
2023-02-08T11:50:30.988Z,38.37
2023-02-08T11:51:30.966Z,39.42
2023-02-08T11:52:32.451Z,40.83
2023-02-08T11:53:30.944Z,38.66
2023-02-08T11:54:30.927Z,40.14
2023-02-08T11:55:30.955Z,39.73
2023-02-08T11:56:30.905Z,40.70
2023-02-08T11:57:30.891Z,40.35
2023-02-08T11:58:30.894Z,39.49
2023-02-08T11:59:30.935Z,40.16
2023-02-08T12:00:30.897Z,40.73
2023-02-08T12:01:30.857Z,38.32
2023-02-08T12:02:31.009Z,38.45
2023-02-08T12:03:31.274Z,38.54
2023-02-08T12:04:30.832Z,37.99
2023-02-08T12:05:30.808Z,37.51
2023-02-08T12:06:30.833Z,36.75
2023-02-08T12:07:30.796Z,36.85
2023-02-08T12:08:30.870Z,36.20
2023-02-08T12:09:31.301Z,36.29
2023-02-08T12:10:30.762Z,35.70
2023-02-08T12:11:30.745Z,35.31
2023-02-08T12:12:30.728Z,36.11
2023-02-08T12:13:30.841Z,35.58
2023-02-08T12:14:30.777Z,37.90
2023-02-08T12:15:30.751Z,37.21
2023-02-08T12:16:32.607Z,35.69
2023-02-08T12:17:30.716Z,33.82
2023-02-08T12:18:30.681Z,34.61
2023-02-08T12:19:30.661Z,35.80
2023-02-08T12:20:30.750Z,36.20
2023-02-08T12:21:31.276Z,35.74
2023-02-08T12:22:30.654Z,34.28
2023-02-08T12:23:30.616Z,34.25
2023-02-08T12:24:30.597Z,34.06
2023-02-08T12:25:30.688Z,33.01
2023-02-08T12:26:30.591Z,34.06
2023-02-08T12:27:30.591Z,34.16
2023-02-08T12:28:30.552Z,32.60
2023-02-08T12:29:45.470Z,33.66
2023-02-08T12:30:31.571Z,35.38
2023-02-08T12:31:30.694Z,35.93
2023-02-08T12:32:30.575Z,37.76
2023-02-08T12:33:30.532Z,39.54
2023-02-08T12:34:30.566Z,40.18
2023-02-08T12:35:57.405Z,40.20
2023-02-08T12:36:31.485Z,40.72
2023-02-08T12:37:30.499Z,40.84
2023-02-08T12:38:30.497Z,41.33
2023-02-08T12:39:30.530Z,42.99
2023-02-08T12:40:30.526Z,42.37
2023-02-08T12:41:30.417Z,42.93
2023-02-08T12:42:31.334Z,43.22
2023-02-08T12:43:30.451Z,41.78
2023-02-08T12:44:30.384Z,42.93
2023-02-08T12:45:31.089Z,43.70
2023-02-08T12:46:30.436Z,44.74
2023-02-08T12:47:30.410Z,44.30
2023-02-08T12:48:30.340Z,44.40
2023-02-08T12:49:30.388Z,44.09
2023-02-08T12:50:30.321Z,44.32
2023-02-08T12:51:30.318Z,44.57
2023-02-08T12:52:30.474Z,45.30